sensor_id;sensor_type;location;lat;lon;timestamp;P1;durP1;ratioP1;P2;durP2;ratioP2
33074;SDS011;19433;51.292;6.868;2023-03-11T00:00:57;4.67;;;4.20;;
33074;SDS011;19433;51.292;6.868;2023-03-11T00:03:23;4.30;;;3.70;;
33074;SDS011;19433;51.292;6.868;2023-03-11T00:05:49;7.47;;;4.60;;
33074;SDS011;19433;51.292;6.868;2023-03-11T00:08:17;7.47;;;5.00;;
33074;SDS011;19433;51.292;6.868;2023-03-11T00:10:45;8.93;;;4.90;;
33074;SDS011;19433;51.292;6.868;2023-03-11T00:13:13;9.80;;;5.63;;
33074;SDS011;19433;51.292;6.868;2023-03-11T00:15:41;9.97;;;5.63;;
33074;SDS011;19433;51.292;6.868;2023-03-11T00:18:07;9.53;;;5.20;;
33074;SDS011;19433;51.292;6.868;2023-03-11T00:20:34;7.33;;;5.27;;
33074;SDS011;19433;51.292;6.868;2023-03-11T00:23:02;7.43;;;4.30;;
33074;SDS011;19433;51.292;6.868;2023-03-11T00:25:30;7.70;;;5.00;;
33074;SDS011;19433;51.292;6.868;2023-03-11T00:27:56;7.70;;;5.17;;
33074;SDS011;19433;51.292;6.868;2023-03-11T00:30:23;6.33;;;4.97;;
33074;SDS011;19433;51.292;6.868;2023-03-11T00:32:50;8.50;;;5.50;;
33074;SDS011;19433;51.292;6.868;2023-03-11T00:35:18;7.47;;;4.60;;
33074;SDS011;19433;51.292;6.868;2023-03-11T00:37:46;5.33;;;4.27;;
33074;SDS011;19433;51.292;6.868;2023-03-11T00:40:13;9.63;;;5.00;;
33074;SDS011;19433;51.292;6.868;2023-03-11T00:42:40;7.73;;;4.80;;
33074;SDS011;19433;51.292;6.868;2023-03-11T00:45:06;8.93;;;5.23;;
33074;SDS011;19433;51.292;6.868;2023-03-11T00:47:31;7.93;;;5.43;;
33074;SDS011;19433;51.292;6.868;2023-03-11T00:49:57;9.37;;;5.93;;
33074;SDS011;19433;51.292;6.868;2023-03-11T00:52:22;9.30;;;6.07;;
33074;SDS011;19433;51.292;6.868;2023-03-11T00:54:47;9.70;;;4.43;;
33074;SDS011;19433;51.292;6.868;2023-03-11T00:57:13;5.50;;;3.33;;
33074;SDS011;19433;51.292;6.868;2023-03-11T00:59:38;11.00;;;2.30;;
33074;SDS011;19433;51.292;6.868;2023-03-11T01:02:03;5.27;;;3.50;;
33074;SDS011;19433;51.292;6.868;2023-03-11T01:04:29;6.87;;;2.90;;
33074;SDS011;19433;51.292;6.868;2023-03-11T01:06:54;7.63;;;3.40;;
33074;SDS011;19433;51.292;6.868;2023-03-11T01:09:19;6.27;;;3.03;;
33074;SDS011;19433;51.292;6.868;2023-03-11T01:11:44;8.40;;;2.03;;
33074;SDS011;19433;51.292;6.868;2023-03-11T01:14:10;7.43;;;2.13;;
33074;SDS011;19433;51.292;6.868;2023-03-11T01:16:35;5.47;;;2.10;;
33074;SDS011;19433;51.292;6.868;2023-03-11T01:19:01;5.73;;;2.33;;
33074;SDS011;19433;51.292;6.868;2023-03-11T01:21:27;5.90;;;2.10;;
33074;SDS011;19433;51.292;6.868;2023-03-11T01:23:52;3.93;;;2.23;;
33074;SDS011;19433;51.292;6.868;2023-03-11T01:26:17;5.13;;;2.70;;
33074;SDS011;19433;51.292;6.868;2023-03-11T01:28:43;13.20;;;3.13;;
33074;SDS011;19433;51.292;6.868;2023-03-11T01:31:09;5.20;;;2.40;;
33074;SDS011;19433;51.292;6.868;2023-03-11T01:33:34;3.30;;;2.93;;
33074;SDS011;19433;51.292;6.868;2023-03-11T01:36:00;5.67;;;3.50;;
33074;SDS011;19433;51.292;6.868;2023-03-11T01:38:25;10.17;;;3.67;;
33074;SDS011;19433;51.292;6.868;2023-03-11T01:40:51;4.87;;;4.10;;
33074;SDS011;19433;51.292;6.868;2023-03-11T01:48:26;2.53;;;2.20;;
33074;SDS011;19433;51.292;6.868;2023-03-11T01:50:52;6.40;;;2.40;;
33074;SDS011;19433;51.292;6.868;2023-03-11T01:53:18;8.73;;;2.57;;
33074;SDS011;19433;51.292;6.868;2023-03-11T01:55:44;6.80;;;3.07;;
33074;SDS011;19433;51.292;6.868;2023-03-11T01:58:10;10.93;;;2.47;;
33074;SDS011;19433;51.292;6.868;2023-03-11T02:00:41;2.10;;;1.97;;
33074;SDS011;19433;51.292;6.868;2023-03-11T02:03:13;3.37;;;2.40;;
33074;SDS011;19433;51.292;6.868;2023-03-11T02:05:45;6.23;;;2.10;;
33074;SDS011;19433;51.292;6.868;2023-03-11T02:08:11;4.13;;;1.90;;
33074;SDS011;19433;51.292;6.868;2023-03-11T02:10:38;9.13;;;2.90;;
33074;SDS011;19433;51.292;6.868;2023-03-11T02:13:06;2.60;;;2.00;;
33074;SDS011;19433;51.292;6.868;2023-03-11T02:15:31;3.53;;;2.63;;
33074;SDS011;19433;51.292;6.868;2023-03-11T02:17:57;6.90;;;2.73;;
33074;SDS011;19433;51.292;6.868;2023-03-11T02:20:31;2.50;;;2.23;;
33074;SDS011;19433;51.292;6.868;2023-03-11T02:23:06;6.23;;;2.27;;
33074;SDS011;19433;51.292;6.868;2023-03-11T02:28:07;9.33;;;3.33;;
33074;SDS011;19433;51.292;6.868;2023-03-11T02:30:36;3.70;;;1.90;;
33074;SDS011;19433;51.292;6.868;2023-03-11T02:33:04;8.83;;;2.70;;
33074;SDS011;19433;51.292;6.868;2023-03-11T02:35:30;4.40;;;3.30;;
33074;SDS011;19433;51.292;6.868;2023-03-11T02:37:55;4.40;;;2.30;;
33074;SDS011;19433;51.292;6.868;2023-03-11T02:42:58;8.80;;;2.47;;
33074;SDS011;19433;51.292;6.868;2023-03-11T02:45:25;6.33;;;3.53;;
33074;SDS011;19433;51.292;6.868;2023-03-11T02:47:53;7.60;;;2.67;;
33074;SDS011;19433;51.292;6.868;2023-03-11T02:50:20;4.27;;;2.30;;
33074;SDS011;19433;51.292;6.868;2023-03-11T02:52:47;7.40;;;2.47;;
33074;SDS011;19433;51.292;6.868;2023-03-11T02:55:13;8.47;;;3.40;;
33074;SDS011;19433;51.292;6.868;2023-03-11T02:57:40;6.60;;;2.67;;
33074;SDS011;19433;51.292;6.868;2023-03-11T03:00:06;5.00;;;2.50;;
33074;SDS011;19433;51.292;6.868;2023-03-11T03:02:37;11.17;;;4.63;;
33074;SDS011;19433;51.292;6.868;2023-03-11T03:05:02;6.30;;;2.73;;
33074;SDS011;19433;51.292;6.868;2023-03-11T03:07:28;9.30;;;2.60;;
33074;SDS011;19433;51.292;6.868;2023-03-11T03:09:53;3.83;;;2.23;;
33074;SDS011;19433;51.292;6.868;2023-03-11T03:12:19;8.03;;;2.40;;
33074;SDS011;19433;51.292;6.868;2023-03-11T03:14:44;5.60;;;2.37;;
33074;SDS011;19433;51.292;6.868;2023-03-11T03:17:09;4.23;;;3.20;;
33074;SDS011;19433;51.292;6.868;2023-03-11T03:19:34;4.73;;;2.20;;
33074;SDS011;19433;51.292;6.868;2023-03-11T03:22:00;4.40;;;2.43;;
33074;SDS011;19433;51.292;6.868;2023-03-11T03:24:25;8.23;;;2.40;;
33074;SDS011;19433;51.292;6.868;2023-03-11T03:26:50;5.57;;;2.20;;
33074;SDS011;19433;51.292;6.868;2023-03-11T03:29:16;5.13;;;2.00;;
33074;SDS011;19433;51.292;6.868;2023-03-11T03:31:41;6.37;;;2.87;;
33074;SDS011;19433;51.292;6.868;2023-03-11T03:34:06;5.53;;;2.40;;
33074;SDS011;19433;51.292;6.868;2023-03-11T03:36:32;8.43;;;2.97;;
33074;SDS011;19433;51.292;6.868;2023-03-11T03:38:57;9.00;;;3.20;;
33074;SDS011;19433;51.292;6.868;2023-03-11T03:41:23;3.17;;;2.27;;
33074;SDS011;19433;51.292;6.868;2023-03-11T03:43:49;11.03;;;4.23;;
33074;SDS011;19433;51.292;6.868;2023-03-11T03:46:14;6.30;;;2.40;;
33074;SDS011;19433;51.292;6.868;2023-03-11T03:48:40;17.93;;;2.90;;
33074;SDS011;19433;51.292;6.868;2023-03-11T03:51:07;2.37;;;2.13;;
33074;SDS011;19433;51.292;6.868;2023-03-11T03:53:34;3.00;;;2.00;;
33074;SDS011;19433;51.292;6.868;2023-03-11T03:56:04;8.63;;;3.13;;
33074;SDS011;19433;51.292;6.868;2023-03-11T03:58:33;8.80;;;2.13;;
33074;SDS011;19433;51.292;6.868;2023-03-11T04:00:59;13.43;;;2.20;;
33074;SDS011;19433;51.292;6.868;2023-03-11T04:03:25;7.13;;;2.87;;
33074;SDS011;19433;51.292;6.868;2023-03-11T04:05:51;9.60;;;3.07;;
33074;SDS011;19433;51.292;6.868;2023-03-11T04:08:17;11.60;;;2.50;;
33074;SDS011;19433;51.292;6.868;2023-03-11T04:10:42;9.70;;;2.93;;
33074;SDS011;19433;51.292;6.868;2023-03-11T04:13:07;7.37;;;2.87;;
33074;SDS011;19433;51.292;6.868;2023-03-11T04:15:33;4.63;;;2.43;;
33074;SDS011;19433;51.292;6.868;2023-03-11T04:17:58;5.93;;;2.40;;
33074;SDS011;19433;51.292;6.868;2023-03-11T04:20:23;3.30;;;2.13;;
33074;SDS011;19433;51.292;6.868;2023-03-11T04:22:48;3.33;;;1.60;;
33074;SDS011;19433;51.292;6.868;2023-03-11T04:25:14;6.53;;;2.30;;
33074;SDS011;19433;51.292;6.868;2023-03-11T04:27:39;7.10;;;2.40;;
33074;SDS011;19433;51.292;6.868;2023-03-11T04:30:10;4.73;;;2.23;;
33074;SDS011;19433;51.292;6.868;2023-03-11T04:32:36;11.27;;;3.23;;
33074;SDS011;19433;51.292;6.868;2023-03-11T04:35:02;7.37;;;1.97;;
33074;SDS011;19433;51.292;6.868;2023-03-11T04:37:28;7.03;;;2.40;;
33074;SDS011;19433;51.292;6.868;2023-03-11T04:39:54;4.70;;;2.10;;
33074;SDS011;19433;51.292;6.868;2023-03-11T04:42:19;8.80;;;2.47;;
33074;SDS011;19433;51.292;6.868;2023-03-11T04:44:45;8.83;;;2.73;;
33074;SDS011;19433;51.292;6.868;2023-03-11T04:47:10;4.47;;;1.93;;
33074;SDS011;19433;51.292;6.868;2023-03-11T04:49:35;8.33;;;2.67;;
33074;SDS011;19433;51.292;6.868;2023-03-11T04:52:01;5.67;;;2.37;;
33074;SDS011;19433;51.292;6.868;2023-03-11T04:54:26;7.83;;;2.27;;
33074;SDS011;19433;51.292;6.868;2023-03-11T04:56:51;9.40;;;2.50;;
33074;SDS011;19433;51.292;6.868;2023-03-11T04:59:17;5.07;;;2.10;;
33074;SDS011;19433;51.292;6.868;2023-03-11T05:01:42;7.60;;;2.80;;
33074;SDS011;19433;51.292;6.868;2023-03-11T05:04:07;4.80;;;2.67;;
33074;SDS011;19433;51.292;6.868;2023-03-11T05:06:32;4.93;;;2.60;;
33074;SDS011;19433;51.292;6.868;2023-03-11T05:08:58;7.90;;;2.80;;
33074;SDS011;19433;51.292;6.868;2023-03-11T05:11:23;3.63;;;2.30;;
33074;SDS011;19433;51.292;6.868;2023-03-11T05:13:49;4.13;;;3.17;;
33074;SDS011;19433;51.292;6.868;2023-03-11T05:16:14;5.63;;;1.90;;
33074;SDS011;19433;51.292;6.868;2023-03-11T05:18:40;4.80;;;2.10;;
33074;SDS011;19433;51.292;6.868;2023-03-11T05:21:06;8.20;;;2.67;;
33074;SDS011;19433;51.292;6.868;2023-03-11T05:23:31;7.17;;;2.60;;
33074;SDS011;19433;51.292;6.868;2023-03-11T05:25:56;8.03;;;2.70;;
33074;SDS011;19433;51.292;6.868;2023-03-11T05:28:22;4.73;;;2.10;;
33074;SDS011;19433;51.292;6.868;2023-03-11T05:30:47;8.70;;;2.50;;
33074;SDS011;19433;51.292;6.868;2023-03-11T05:33:12;17.07;;;3.17;;
33074;SDS011;19433;51.292;6.868;2023-03-11T05:35:37;5.20;;;2.77;;
33074;SDS011;19433;51.292;6.868;2023-03-11T05:38:03;7.57;;;2.47;;
33074;SDS011;19433;51.292;6.868;2023-03-11T05:40:28;8.90;;;2.40;;
33074;SDS011;19433;51.292;6.868;2023-03-11T05:42:53;8.30;;;2.27;;
33074;SDS011;19433;51.292;6.868;2023-03-11T05:45:19;12.40;;;3.03;;
33074;SDS011;19433;51.292;6.868;2023-03-11T05:47:44;3.40;;;2.30;;
33074;SDS011;19433;51.292;6.868;2023-03-11T05:50:10;3.03;;;2.70;;
33074;SDS011;19433;51.292;6.868;2023-03-11T05:52:35;3.47;;;1.73;;
33074;SDS011;19433;51.292;6.868;2023-03-11T05:55:01;6.90;;;3.50;;
33074;SDS011;19433;51.292;6.868;2023-03-11T05:57:26;5.07;;;2.60;;
33074;SDS011;19433;51.292;6.868;2023-03-11T05:59:52;4.40;;;2.07;;
33074;SDS011;19433;51.292;6.868;2023-03-11T06:02:17;7.20;;;2.37;;
33074;SDS011;19433;51.292;6.868;2023-03-11T06:04:46;10.03;;;2.20;;
33074;SDS011;19433;51.292;6.868;2023-03-11T06:07:12;5.17;;;2.23;;
33074;SDS011;19433;51.292;6.868;2023-03-11T06:09:39;7.93;;;3.00;;
33074;SDS011;19433;51.292;6.868;2023-03-11T06:12:04;6.23;;;2.60;;
33074;SDS011;19433;51.292;6.868;2023-03-11T06:14:30;10.10;;;3.10;;
33074;SDS011;19433;51.292;6.868;2023-03-11T06:16:57;7.87;;;2.33;;
33074;SDS011;19433;51.292;6.868;2023-03-11T06:19:23;4.83;;;2.30;;
33074;SDS011;19433;51.292;6.868;2023-03-11T06:21:49;5.80;;;2.17;;
33074;SDS011;19433;51.292;6.868;2023-03-11T06:24:14;7.03;;;3.10;;
33074;SDS011;19433;51.292;6.868;2023-03-11T06:26:39;4.67;;;2.20;;
33074;SDS011;19433;51.292;6.868;2023-03-11T06:29:06;6.70;;;3.13;;
33074;SDS011;19433;51.292;6.868;2023-03-11T06:31:33;4.40;;;3.10;;
33074;SDS011;19433;51.292;6.868;2023-03-11T06:33:58;6.13;;;2.90;;
33074;SDS011;19433;51.292;6.868;2023-03-11T06:36:24;2.80;;;2.30;;
33074;SDS011;19433;51.292;6.868;2023-03-11T06:38:51;6.63;;;2.63;;
33074;SDS011;19433;51.292;6.868;2023-03-11T06:41:17;7.40;;;2.60;;
33074;SDS011;19433;51.292;6.868;2023-03-11T06:43:42;4.17;;;2.90;;
33074;SDS011;19433;51.292;6.868;2023-03-11T06:46:15;7.40;;;2.63;;
33074;SDS011;19433;51.292;6.868;2023-03-11T06:48:45;5.03;;;2.57;;
33074;SDS011;19433;51.292;6.868;2023-03-11T06:51:11;13.57;;;3.70;;
33074;SDS011;19433;51.292;6.868;2023-03-11T06:53:37;4.20;;;2.80;;
33074;SDS011;19433;51.292;6.868;2023-03-11T06:56:07;2.50;;;2.30;;
33074;SDS011;19433;51.292;6.868;2023-03-11T06:58:34;8.17;;;3.10;;
33074;SDS011;19433;51.292;6.868;2023-03-11T07:01:23;9.20;;;2.90;;
33074;SDS011;19433;51.292;6.868;2023-03-11T07:03:48;10.40;;;3.10;;
33074;SDS011;19433;51.292;6.868;2023-03-11T07:06:15;7.90;;;2.60;;
33074;SDS011;19433;51.292;6.868;2023-03-11T07:08:42;6.27;;;3.73;;
33074;SDS011;19433;51.292;6.868;2023-03-11T07:13:33;8.97;;;3.63;;
33074;SDS011;19433;51.292;6.868;2023-03-11T07:16:00;3.83;;;3.50;;
33074;SDS011;19433;51.292;6.868;2023-03-11T07:18:25;8.33;;;5.70;;
33074;SDS011;19433;51.292;6.868;2023-03-11T07:20:51;6.83;;;6.10;;
33074;SDS011;19433;51.292;6.868;2023-03-11T07:23:16;13.07;;;6.93;;
33074;SDS011;19433;51.292;6.868;2023-03-11T07:25:45;17.67;;;6.30;;
33074;SDS011;19433;51.292;6.868;2023-03-11T07:28:11;5.57;;;4.70;;
33074;SDS011;19433;51.292;6.868;2023-03-11T07:30:37;6.23;;;3.47;;
33074;SDS011;19433;51.292;6.868;2023-03-11T07:33:03;2.73;;;2.50;;
33074;SDS011;19433;51.292;6.868;2023-03-11T07:35:29;4.70;;;1.83;;
33074;SDS011;19433;51.292;6.868;2023-03-11T07:37:54;9.43;;;2.30;;
33074;SDS011;19433;51.292;6.868;2023-03-11T07:40:19;6.03;;;2.20;;
33074;SDS011;19433;51.292;6.868;2023-03-11T07:42:45;3.17;;;2.40;;
33074;SDS011;19433;51.292;6.868;2023-03-11T07:45:10;5.73;;;2.50;;
33074;SDS011;19433;51.292;6.868;2023-03-11T07:47:36;5.70;;;1.97;;
33074;SDS011;19433;51.292;6.868;2023-03-11T07:50:01;6.10;;;2.50;;
33074;SDS011;19433;51.292;6.868;2023-03-11T07:52:30;7.20;;;2.23;;
33074;SDS011;19433;51.292;6.868;2023-03-11T07:54:56;4.23;;;2.10;;
33074;SDS011;19433;51.292;6.868;2023-03-11T07:57:22;3.93;;;2.50;;
33074;SDS011;19433;51.292;6.868;2023-03-11T07:59:47;3.90;;;2.13;;
33074;SDS011;19433;51.292;6.868;2023-03-11T08:02:12;6.63;;;2.20;;
33074;SDS011;19433;51.292;6.868;2023-03-11T08:04:38;5.40;;;2.17;;
33074;SDS011;19433;51.292;6.868;2023-03-11T08:07:03;2.90;;;2.10;;
33074;SDS011;19433;51.292;6.868;2023-03-11T08:09:28;6.30;;;2.20;;
33074;SDS011;19433;51.292;6.868;2023-03-11T08:11:53;4.10;;;2.40;;
33074;SDS011;19433;51.292;6.868;2023-03-11T08:14:19;5.17;;;2.80;;
33074;SDS011;19433;51.292;6.868;2023-03-11T08:16:44;2.20;;;2.10;;
33074;SDS011;19433;51.292;6.868;2023-03-11T08:19:10;4.20;;;2.10;;
33074;SDS011;19433;51.292;6.868;2023-03-11T08:21:36;3.50;;;2.17;;
33074;SDS011;19433;51.292;6.868;2023-03-11T08:24:02;6.30;;;2.87;;
33074;SDS011;19433;51.292;6.868;2023-03-11T08:26:27;5.03;;;2.70;;
33074;SDS011;19433;51.292;6.868;2023-03-11T08:28:54;6.53;;;2.83;;
33074;SDS011;19433;51.292;6.868;2023-03-11T08:31:21;5.33;;;2.50;;
33074;SDS011;19433;51.292;6.868;2023-03-11T08:33:48;3.37;;;2.03;;
33074;SDS011;19433;51.292;6.868;2023-03-11T08:36:15;3.60;;;2.33;;
33074;SDS011;19433;51.292;6.868;2023-03-11T08:38:41;5.27;;;2.50;;
33074;SDS011;19433;51.292;6.868;2023-03-11T08:41:06;3.30;;;1.80;;
33074;SDS011;19433;51.292;6.868;2023-03-11T08:43:32;5.23;;;2.03;;
33074;SDS011;19433;51.292;6.868;2023-03-11T08:46:01;8.53;;;2.77;;
33074;SDS011;19433;51.292;6.868;2023-03-11T08:48:30;4.40;;;2.17;;
33074;SDS011;19433;51.292;6.868;2023-03-11T08:50:55;5.37;;;2.60;;
33074;SDS011;19433;51.292;6.868;2023-03-11T08:53:21;3.90;;;2.37;;
33074;SDS011;19433;51.292;6.868;2023-03-11T08:55:47;2.93;;;2.23;;
33074;SDS011;19433;51.292;6.868;2023-03-11T08:58:15;4.83;;;3.03;;
33074;SDS011;19433;51.292;6.868;2023-03-11T09:00:40;8.03;;;2.37;;
33074;SDS011;19433;51.292;6.868;2023-03-11T09:03:05;4.20;;;2.57;;
33074;SDS011;19433;51.292;6.868;2023-03-11T09:05:31;5.27;;;2.60;;
33074;SDS011;19433;51.292;6.868;2023-03-11T09:07:56;5.30;;;2.30;;
33074;SDS011;19433;51.292;6.868;2023-03-11T09:10:22;4.80;;;2.00;;
33074;SDS011;19433;51.292;6.868;2023-03-11T09:12:48;3.00;;;2.23;;
33074;SDS011;19433;51.292;6.868;2023-03-11T09:15:13;5.23;;;2.50;;
33074;SDS011;19433;51.292;6.868;2023-03-11T09:17:40;4.03;;;2.10;;
33074;SDS011;19433;51.292;6.868;2023-03-11T09:20:05;2.30;;;1.67;;
33074;SDS011;19433;51.292;6.868;2023-03-11T09:22:31;2.40;;;1.67;;
33074;SDS011;19433;51.292;6.868;2023-03-11T09:24:56;2.10;;;1.70;;
33074;SDS011;19433;51.292;6.868;2023-03-11T09:27:22;4.60;;;2.00;;
33074;SDS011;19433;51.292;6.868;2023-03-11T09:29:47;2.60;;;1.30;;
33074;SDS011;19433;51.292;6.868;2023-03-11T09:32:13;2.23;;;1.93;;
33074;SDS011;19433;51.292;6.868;2023-03-11T09:34:39;2.33;;;1.67;;
33074;SDS011;19433;51.292;6.868;2023-03-11T09:37:04;3.03;;;1.33;;
33074;SDS011;19433;51.292;6.868;2023-03-11T09:39:30;2.23;;;1.67;;
33074;SDS011;19433;51.292;6.868;2023-03-11T09:41:56;7.13;;;1.80;;
33074;SDS011;19433;51.292;6.868;2023-03-11T09:44:40;2.63;;;1.43;;
33074;SDS011;19433;51.292;6.868;2023-03-11T09:50:03;6.20;;;1.90;;
33074;SDS011;19433;51.292;6.868;2023-03-11T09:55:26;6.70;;;1.23;;
33074;SDS011;19433;51.292;6.868;2023-03-11T09:57:58;2.43;;;1.23;;
33074;SDS011;19433;51.292;6.868;2023-03-11T10:00:27;3.30;;;1.23;;
33074;SDS011;19433;51.292;6.868;2023-03-11T10:02:52;5.43;;;2.50;;
33074;SDS011;19433;51.292;6.868;2023-03-11T10:05:22;3.17;;;2.23;;
33074;SDS011;19433;51.292;6.868;2023-03-11T10:07:52;3.23;;;1.80;;
33074;SDS011;19433;51.292;6.868;2023-03-11T10:10:32;4.70;;;2.10;;
33074;SDS011;19433;51.292;6.868;2023-03-11T10:13:08;4.73;;;2.27;;
33074;SDS011;19433;51.292;6.868;2023-03-11T10:20:59;4.53;;;3.00;;
33074;SDS011;19433;51.292;6.868;2023-03-11T10:28:41;4.70;;;2.30;;
33074;SDS011;19433;51.292;6.868;2023-03-11T10:37:10;2.60;;;1.83;;
33074;SDS011;19433;51.292;6.868;2023-03-11T10:39:38;6.20;;;2.47;;
33074;SDS011;19433;51.292;6.868;2023-03-11T10:42:05;4.87;;;2.40;;
33074;SDS011;19433;51.292;6.868;2023-03-11T10:44:38;4.70;;;2.37;;
33074;SDS011;19433;51.292;6.868;2023-03-11T10:47:05;4.80;;;3.13;;
33074;SDS011;19433;51.292;6.868;2023-03-11T10:49:36;3.60;;;2.30;;
33074;SDS011;19433;51.292;6.868;2023-03-11T10:52:01;4.50;;;2.70;;
33074;SDS011;19433;51.292;6.868;2023-03-11T10:54:30;3.40;;;2.20;;
33074;SDS011;19433;51.292;6.868;2023-03-11T10:59:52;4.53;;;2.47;;
33074;SDS011;19433;51.292;6.868;2023-03-11T11:02:23;3.37;;;1.93;;
33074;SDS011;19433;51.292;6.868;2023-03-11T11:07:41;4.67;;;2.27;;
33074;SDS011;19433;51.292;6.868;2023-03-11T11:10:20;3.43;;;1.70;;
33074;SDS011;19433;51.292;6.868;2023-03-11T11:12:54;4.07;;;1.90;;
33074;SDS011;19433;51.292;6.868;2023-03-11T11:15:36;5.03;;;1.77;;
33074;SDS011;19433;51.292;6.868;2023-03-11T11:18:20;4.17;;;2.13;;
33074;SDS011;19433;51.292;6.868;2023-03-11T11:20:53;5.77;;;2.57;;
33074;SDS011;19433;51.292;6.868;2023-03-11T11:23:23;5.67;;;2.73;;
33074;SDS011;19433;51.292;6.868;2023-03-11T11:25:57;7.70;;;2.57;;
33074;SDS011;19433;51.292;6.868;2023-03-11T11:28:25;3.10;;;2.00;;
33074;SDS011;19433;51.292;6.868;2023-03-11T11:31:33;3.80;;;2.00;;
33074;SDS011;19433;51.292;6.868;2023-03-11T11:33:53;4.13;;;2.23;;
33074;SDS011;19433;51.292;6.868;2023-03-11T11:36:21;5.57;;;2.23;;
33074;SDS011;19433;51.292;6.868;2023-03-11T11:38:51;3.60;;;2.30;;
33074;SDS011;19433;51.292;6.868;2023-03-11T11:41:19;6.03;;;2.73;;
33074;SDS011;19433;51.292;6.868;2023-03-11T11:43:51;6.10;;;2.13;;
33074;SDS011;19433;51.292;6.868;2023-03-11T11:46:38;4.20;;;2.73;;
33074;SDS011;19433;51.292;6.868;2023-03-11T11:49:21;3.47;;;1.87;;
33074;SDS011;19433;51.292;6.868;2023-03-11T11:54:29;4.83;;;1.63;;
33074;SDS011;19433;51.292;6.868;2023-03-11T11:57:10;2.63;;;2.07;;
33074;SDS011;19433;51.292;6.868;2023-03-11T11:59:37;1.83;;;1.70;;
33074;SDS011;19433;51.292;6.868;2023-03-11T12:04:47;6.10;;;2.60;;
33074;SDS011;19433;51.292;6.868;2023-03-11T12:09:54;3.30;;;2.40;;
33074;SDS011;19433;51.292;6.868;2023-03-11T12:12:39;4.67;;;2.00;;
33074;SDS011;19433;51.292;6.868;2023-03-11T12:17:53;4.90;;;2.97;;
33074;SDS011;19433;51.292;6.868;2023-03-11T12:20:45;5.10;;;2.10;;
33074;SDS011;19433;51.292;6.868;2023-03-11T12:26:18;2.43;;;1.80;;
33074;SDS011;19433;51.292;6.868;2023-03-11T12:31:54;4.17;;;2.40;;
33074;SDS011;19433;51.292;6.868;2023-03-11T12:34:20;2.97;;;2.20;;
33074;SDS011;19433;51.292;6.868;2023-03-11T12:36:48;2.37;;;2.10;;
33074;SDS011;19433;51.292;6.868;2023-03-11T12:39:22;5.13;;;1.93;;
33074;SDS011;19433;51.292;6.868;2023-03-11T12:44:44;3.33;;;1.80;;
33074;SDS011;19433;51.292;6.868;2023-03-11T12:49:40;4.90;;;2.20;;
33074;SDS011;19433;51.292;6.868;2023-03-11T13:00:01;3.57;;;1.83;;
33074;SDS011;19433;51.292;6.868;2023-03-11T13:08:15;3.53;;;1.67;;
33074;SDS011;19433;51.292;6.868;2023-03-11T13:10:44;2.73;;;1.80;;
33074;SDS011;19433;51.292;6.868;2023-03-11T13:13:21;2.90;;;1.63;;
33074;SDS011;19433;51.292;6.868;2023-03-11T13:15:47;2.90;;;1.70;;
33074;SDS011;19433;51.292;6.868;2023-03-11T13:18:14;4.83;;;1.90;;
33074;SDS011;19433;51.292;6.868;2023-03-11T13:20:46;2.83;;;1.70;;
33074;SDS011;19433;51.292;6.868;2023-03-11T13:25:40;5.47;;;1.80;;
33074;SDS011;19433;51.292;6.868;2023-03-11T13:30:52;1.57;;;1.30;;
33074;SDS011;19433;51.292;6.868;2023-03-11T13:39:13;1.47;;;1.30;;
33074;SDS011;19433;51.292;6.868;2023-03-11T13:42:00;2.50;;;1.37;;
33074;SDS011;19433;51.292;6.868;2023-03-11T13:44:30;2.40;;;1.67;;
33074;SDS011;19433;51.292;6.868;2023-03-11T13:47:03;1.97;;;1.30;;
33074;SDS011;19433;51.292;6.868;2023-03-11T13:49:53;4.23;;;1.30;;
33074;SDS011;19433;51.292;6.868;2023-03-11T13:52:31;2.50;;;1.83;;
33074;SDS011;19433;51.292;6.868;2023-03-11T13:55:51;4.03;;;1.40;;
33074;SDS011;19433;51.292;6.868;2023-03-11T13:57:55;2.73;;;1.40;;
33074;SDS011;19433;51.292;6.868;2023-03-11T14:00:22;1.47;;;1.33;;
33074;SDS011;19433;51.292;6.868;2023-03-11T14:02:52;5.77;;;2.40;;
33074;SDS011;19433;51.292;6.868;2023-03-11T14:05:21;2.50;;;1.77;;
33074;SDS011;19433;51.292;6.868;2023-03-11T14:07:51;1.37;;;1.20;;
33074;SDS011;19433;51.292;6.868;2023-03-11T14:10:22;1.97;;;1.30;;
33074;SDS011;19433;51.292;6.868;2023-03-11T14:12:49;4.57;;;2.40;;
33074;SDS011;19433;51.292;6.868;2023-03-11T14:15:19;1.60;;;1.50;;
33074;SDS011;19433;51.292;6.868;2023-03-11T14:17:47;1.87;;;1.23;;
33074;SDS011;19433;51.292;6.868;2023-03-11T14:20:15;2.20;;;1.30;;
33074;SDS011;19433;51.292;6.868;2023-03-11T14:22:46;2.93;;;1.77;;
33074;SDS011;19433;51.292;6.868;2023-03-11T14:25:17;2.57;;;1.40;;
33074;SDS011;19433;51.292;6.868;2023-03-11T14:27:49;2.40;;;1.20;;
33074;SDS011;19433;51.292;6.868;2023-03-11T14:30:19;2.10;;;1.33;;
33074;SDS011;19433;51.292;6.868;2023-03-11T14:33:01;3.73;;;1.30;;
33074;SDS011;19433;51.292;6.868;2023-03-11T14:35:28;3.77;;;1.70;;
33074;SDS011;19433;51.292;6.868;2023-03-11T14:37:55;1.57;;;1.40;;
33074;SDS011;19433;51.292;6.868;2023-03-11T14:40:28;2.60;;;2.03;;
33074;SDS011;19433;51.292;6.868;2023-03-11T14:42:57;2.80;;;1.60;;
33074;SDS011;19433;51.292;6.868;2023-03-11T14:45:27;2.00;;;1.33;;
33074;SDS011;19433;51.292;6.868;2023-03-11T14:50:44;1.87;;;1.77;;
33074;SDS011;19433;51.292;6.868;2023-03-11T14:58:27;1.80;;;1.37;;
33074;SDS011;19433;51.292;6.868;2023-03-11T15:03:47;1.90;;;1.70;;
33074;SDS011;19433;51.292;6.868;2023-03-11T15:06:22;2.83;;;1.20;;
33074;SDS011;19433;51.292;6.868;2023-03-11T15:08:51;1.93;;;1.43;;
33074;SDS011;19433;51.292;6.868;2023-03-11T15:11:23;2.13;;;1.23;;
33074;SDS011;19433;51.292;6.868;2023-03-11T15:13:50;2.33;;;1.70;;
33074;SDS011;19433;51.292;6.868;2023-03-11T15:16:32;1.57;;;1.33;;
33074;SDS011;19433;51.292;6.868;2023-03-11T15:19:00;4.17;;;1.67;;
33074;SDS011;19433;51.292;6.868;2023-03-11T15:21:26;2.20;;;1.43;;
33074;SDS011;19433;51.292;6.868;2023-03-11T15:23:55;2.27;;;1.57;;
33074;SDS011;19433;51.292;6.868;2023-03-11T15:26:29;1.70;;;1.60;;
33074;SDS011;19433;51.292;6.868;2023-03-11T15:29:00;3.53;;;1.40;;
33074;SDS011;19433;51.292;6.868;2023-03-11T15:39:14;2.20;;;1.30;;
33074;SDS011;19433;51.292;6.868;2023-03-11T15:42:27;2.23;;;1.53;;
33074;SDS011;19433;51.292;6.868;2023-03-11T15:47:16;3.63;;;1.60;;
33074;SDS011;19433;51.292;6.868;2023-03-11T15:49:44;5.20;;;1.80;;
33074;SDS011;19433;51.292;6.868;2023-03-11T15:52:10;5.33;;;1.47;;
33074;SDS011;19433;51.292;6.868;2023-03-11T15:54:36;2.40;;;1.50;;
33074;SDS011;19433;51.292;6.868;2023-03-11T15:57:03;3.27;;;0.93;;
33074;SDS011;19433;51.292;6.868;2023-03-11T15:59:31;2.60;;;1.60;;
33074;SDS011;19433;51.292;6.868;2023-03-11T16:01:58;2.50;;;1.53;;
33074;SDS011;19433;51.292;6.868;2023-03-11T16:04:23;5.03;;;2.07;;
33074;SDS011;19433;51.292;6.868;2023-03-11T16:06:49;2.90;;;1.80;;
33074;SDS011;19433;51.292;6.868;2023-03-11T16:09:15;1.53;;;1.43;;
33074;SDS011;19433;51.292;6.868;2023-03-11T16:11:40;2.13;;;1.60;;
33074;SDS011;19433;51.292;6.868;2023-03-11T16:14:16;2.43;;;1.40;;
33074;SDS011;19433;51.292;6.868;2023-03-11T16:16:44;1.27;;;1.17;;
33074;SDS011;19433;51.292;6.868;2023-03-11T16:19:10;1.37;;;1.20;;
33074;SDS011;19433;51.292;6.868;2023-03-11T16:21:39;1.90;;;1.30;;
33074;SDS011;19433;51.292;6.868;2023-03-11T16:24:11;2.00;;;1.30;;
33074;SDS011;19433;51.292;6.868;2023-03-11T16:26:43;2.00;;;1.33;;
33074;SDS011;19433;51.292;6.868;2023-03-11T16:29:08;4.80;;;1.50;;
33074;SDS011;19433;51.292;6.868;2023-03-11T16:31:34;2.50;;;1.40;;
33074;SDS011;19433;51.292;6.868;2023-03-11T16:34:00;1.43;;;1.10;;
33074;SDS011;19433;51.292;6.868;2023-03-11T16:36:25;1.53;;;1.43;;
33074;SDS011;19433;51.292;6.868;2023-03-11T16:38:51;3.80;;;1.60;;
33074;SDS011;19433;51.292;6.868;2023-03-11T16:41:16;1.67;;;1.40;;